Cincinnati, Ohio
Traffic Map
Current Weather Conditions
Cincinnati, Ohio
Overcast Light Rain
Overcast
70°
Feels Like: 70°
Wind Chill: 70° Ceiling: 6500
Heat Index: 70° Visibility: 10mi
Dew Point: 64° Wind: 15mph
Humidity: 81% Direction: 180° (S)
Pressure: 29.7in Gusts: 18mph
Raw Report DataKLUK 010653Z AUTO 18013G16KT 10SM -RA BKN065 OVC090 21/18 A2970 RMK AO2 LTG DSNT S RAB28 SLP053 P0000 T02110178
Traffic Incident Summary
Active as of:
Severity:
Category:
InformationThere was an issue retrieving the traffic information for this location. Please try a different location or try again shortly.
Advertisements
Track Severe Weather on mobile